Time;durP1;ratioP1;P1;durP2;ratioP2;P2;SDS_P1;SDS_P2;PMS_P1;PMS_P2;Temp;Humidity;BMP_temperature;BMP_pressure;BME280_temperature;BME280_humidity;BME280_pressure;Samples;Min_cycle;Max_cycle;Signal;HPM_P1;HPM_P2
2024/01/13 00:02:18;;;;;;;15.43;9.40;;;2.00;99.90;;;;;;4956109;28;20247;-54
2024/01/13 00:04:44;;;;;;;17.53;8.90;;;1.90;99.90;;;;;;4951355;28;20224;-57
2024/01/13 00:07:10;;;;;;;16.93;8.53;;;2.00;99.90;;;;;;4950452;28;20200;-57
2024/01/13 00:09:37;;;;;;;15.43;8.50;;;1.90;99.90;;;;;;4953563;28;20937;-58
2024/01/13 00:12:04;;;;;;;18.63;8.50;;;1.90;99.90;;;;;;4952518;28;20227;-56
2024/01/13 00:14:30;;;;;;;17.90;8.23;;;1.90;99.90;;;;;;4949734;28;20707;-57
2024/01/13 00:16:55;;;;;;;15.17;8.50;;;1.90;99.90;;;;;;4955141;28;20229;-54
2024/01/13 00:19:21;;;;;;;13.70;9.50;;;1.90;99.90;;;;;;4950337;28;20197;-55
2024/01/13 00:21:46;;;;;;;17.07;8.20;;;1.90;99.90;;;;;;4959250;28;20777;-54
2024/01/13 00:24:12;;;;;;;13.40;8.20;;;1.80;99.90;;;;;;4954317;28;20228;-54
2024/01/13 00:26:37;;;;;;;15.43;8.90;;;1.80;99.90;;;;;;4953669;28;20213;-54
2024/01/13 00:29:03;;;;;;;15.13;9.30;;;1.90;99.90;;;;;;4954429;28;20212;-55
2024/01/13 00:31:28;;;;;;;17.93;8.50;;;1.90;99.90;;;;;;4951377;28;20707;-55
2024/01/13 00:33:54;;;;;;;19.37;8.50;;;2.10;99.90;;;;;;4950179;28;20317;-53
2024/01/13 00:36:20;;;;;;;11.37;7.00;;;2.10;99.90;;;;;;4949109;28;20256;-55
2024/01/13 00:38:45;;;;;;;13.53;7.77;;;2.20;99.90;;;;;;4956003;28;20619;-54
2024/01/13 00:41:11;;;;;;;12.13;7.07;;;2.10;99.90;;;;;;4940716;28;20203;-55
2024/01/13 00:43:37;;;;;;;18.23;9.27;;;2.00;99.90;;;;;;4961864;28;20324;-55
2024/01/13 00:46:03;;;;;;;13.30;8.20;;;2.00;99.90;;;;;;4956100;28;20937;-55
2024/01/13 00:48:29;;;;;;;16.00;8.00;;;2.00;99.90;;;;;;4935970;28;20829;-56
2024/01/13 00:50:54;;;;;;;14.57;7.80;;;1.90;99.90;;;;;;4936142;28;20200;-56
2024/01/13 00:53:20;;;;;;;18.17;8.60;;;2.00;99.90;;;;;;4952805;28;20208;-56
2024/01/13 00:55:45;;;;;;;14.30;8.23;;;2.00;99.90;;;;;;4950603;28;20334;-54
2024/01/13 00:58:11;;;;;;;14.00;8.00;;;1.90;99.90;;;;;;4951594;28;20206;-55
2024/01/13 01:00:37;;;;;;;15.40;7.70;;;1.90;99.90;;;;;;4957904;28;20205;-55
2024/01/13 01:03:02;;;;;;;17.53;8.57;;;2.00;99.90;;;;;;4951705;28;20293;-54
2024/01/13 01:05:28;;;;;;;16.60;7.67;;;2.00;99.90;;;;;;4955431;28;20255;-54
2024/01/13 01:07:53;;;;;;;16.83;6.80;;;2.00;99.90;;;;;;4947946;28;20289;-55
2024/01/13 01:10:19;;;;;;;11.10;6.43;;;2.00;99.90;;;;;;4954536;28;20236;-55
2024/01/13 01:12:45;;;;;;;14.57;8.80;;;2.00;99.90;;;;;;4945912;28;20197;-55
2024/01/13 01:15:11;;;;;;;14.07;6.80;;;2.00;99.90;;;;;;4959418;28;20331;-61
2024/01/13 01:17:36;;;;;;;12.73;7.13;;;2.00;99.90;;;;;;4954867;28;20654;-63
2024/01/13 01:20:02;;;;;;;12.27;6.67;;;2.10;99.90;;;;;;4955303;28;20946;-57
2024/01/13 01:22:28;;;;;;;12.33;7.20;;;2.10;99.90;;;;;;4957425;28;20211;-56
2024/01/13 01:24:53;;;;;;;11.57;6.60;;;2.20;99.90;;;;;;4957687;28;20224;-54
2024/01/13 01:27:18;;;;;;;21.93;6.67;;;2.30;99.90;;;;;;4952781;28;20695;-53
2024/01/13 01:29:44;;;;;;;12.97;6.47;;;2.20;99.90;;;;;;4953338;28;20194;-54
2024/01/13 01:32:09;;;;;;;14.13;4.90;;;2.10;99.90;;;;;;4962821;28;20959;-55
2024/01/13 01:34:35;;;;;;;15.63;6.00;;;2.20;99.90;;;;;;4962844;28;20282;-55
2024/01/13 01:37:01;;;;;;;13.53;5.20;;;2.20;99.90;;;;;;4954650;28;20208;-54
2024/01/13 01:39:26;;;;;;;11.30;5.80;;;2.10;99.90;;;;;;4954746;28;20338;-66
2024/01/13 01:41:52;;;;;;;9.30;5.13;;;2.30;99.90;;;;;;4950370;28;20394;-63
2024/01/13 01:44:18;;;;;;;11.17;6.23;;;2.20;99.90;;;;;;4956398;28;20231;-57
2024/01/13 01:46:46;;;;;;;10.10;5.20;;;2.10;99.90;;;;;;4956454;28;20223;-54
2024/01/13 01:49:14;;;;;;;10.03;5.50;;;2.10;99.90;;;;;;4960787;28;21012;-56
2024/01/13 01:51:41;;;;;;;10.57;5.60;;;2.10;99.90;;;;;;4950411;28;20385;-56
2024/01/13 01:54:07;;;;;;;9.07;6.10;;;2.20;99.90;;;;;;4936547;28;20724;-54
2024/01/13 01:56:34;;;;;;;19.60;6.17;;;2.20;99.90;;;;;;4953652;28;20231;-54
2024/01/13 01:59:01;;;;;;;6.80;4.00;;;2.40;99.90;;;;;;4937186;28;20204;-54
2024/01/13 02:01:30;;;;;;;8.20;4.60;;;2.50;99.90;;;;;;4937078;28;20214;-55
2024/01/13 02:03:56;;;;;;;7.40;5.00;;;2.30;99.90;;;;;;4970388;28;20661;-55
2024/01/13 02:06:22;;;;;;;6.07;4.10;;;2.20;99.90;;;;;;4949972;28;20978;-55
2024/01/13 02:08:48;;;;;;;13.77;6.57;;;2.20;99.90;;;;;;4953392;28;20222;-54
2024/01/13 02:11:13;;;;;;;11.63;4.07;;;2.10;99.90;;;;;;4960968;28;20213;-54
2024/01/13 02:13:40;;;;;;;11.10;5.10;;;2.20;99.90;;;;;;4956832;28;20731;-54
2024/01/13 02:16:09;;;;;;;7.80;5.03;;;2.20;99.90;;;;;;4960659;28;20282;-54
2024/01/13 02:18:35;;;;;;;9.70;4.83;;;2.30;99.90;;;;;;4958890;28;20262;-55
2024/01/13 02:21:01;;;;;;;13.90;5.30;;;2.30;99.90;;;;;;4957950;28;20211;-54
2024/01/13 02:23:26;;;;;;;7.43;5.20;;;2.20;99.90;;;;;;4954691;28;20220;-64
2024/01/13 02:25:52;;;;;;;11.53;5.73;;;2.30;99.90;;;;;;4949891;28;20267;-63
2024/01/13 02:28:17;;;;;;;9.37;4.73;;;2.50;99.90;;;;;;4956275;28;20222;-62
2024/01/13 02:30:43;;;;;;;8.67;5.30;;;2.80;99.90;;;;;;4960488;28;20360;-62
2024/01/13 02:33:09;;;;;;;10.77;5.03;;;2.60;99.90;;;;;;4962885;28;20204;-63
2024/01/13 02:35:34;;;;;;;9.00;5.03;;;2.70;99.90;;;;;;4959529;28;20216;-57
2024/01/13 02:38:00;;;;;;;9.80;4.33;;;2.90;99.90;;;;;;4932161;28;20205;-56
2024/01/13 02:40:25;;;;;;;8.27;4.50;;;2.80;99.90;;;;;;4953648;28;20339;-54
2024/01/13 02:42:51;;;;;;;9.23;4.17;;;2.50;99.90;;;;;;4937254;28;20207;-52
2024/01/13 02:45:17;;;;;;;6.63;3.77;;;2.60;99.90;;;;;;4956197;28;20221;-56
2024/01/13 02:47:45;;;;;;;12.53;4.83;;;2.50;99.90;;;;;;4956339;28;20780;-57
2024/01/13 02:50:11;;;;;;;8.73;4.13;;;2.60;99.90;;;;;;4951711;28;20218;-54
2024/01/13 02:52:37;;;;;;;10.00;4.50;;;2.90;99.90;;;;;;4955059;28;20250;-54
2024/01/13 02:55:03;;;;;;;7.40;4.40;;;3.00;99.90;;;;;;4956476;28;20243;-55
2024/01/13 02:57:29;;;;;;;6.73;4.73;;;2.70;99.90;;;;;;4950065;28;20212;-54
2024/01/13 02:59:54;;;;;;;7.43;4.37;;;2.90;99.90;;;;;;4952520;28;20209;-56
2024/01/13 03:02:20;;;;;;;8.73;4.43;;;2.90;99.90;;;;;;4956514;28;20197;-64
2024/01/13 03:04:45;;;;;;;10.20;4.57;;;2.50;99.90;;;;;;4938827;28;20326;-60
2024/01/13 03:07:11;;;;;;;6.00;4.40;;;2.60;99.90;;;;;;4941509;28;20211;-55
2024/01/13 03:09:36;;;;;;;6.77;4.57;;;2.60;99.90;;;;;;4957567;28;20288;-56
2024/01/13 03:12:02;;;;;;;8.10;4.50;;;2.40;99.90;;;;;;4957082;28;20271;-55
2024/01/13 03:14:29;;;;;;;10.57;4.73;;;2.30;99.90;;;;;;4958121;28;20810;-56
2024/01/13 03:16:55;;;;;;;11.10;4.47;;;2.30;99.90;;;;;;4939365;28;20257;-56
2024/01/13 03:19:20;;;;;;;9.27;4.33;;;2.40;99.90;;;;;;4950171;28;20207;-56
2024/01/13 03:21:46;;;;;;;8.60;4.07;;;2.40;99.90;;;;;;4944351;28;20227;-57
2024/01/13 03:24:11;;;;;;;4.57;3.90;;;2.30;99.90;;;;;;4953594;28;20213;-56
2024/01/13 03:26:37;;;;;;;6.57;4.53;;;2.30;99.90;;;;;;4953359;28;20211;-56
2024/01/13 03:29:02;;;;;;;9.43;5.50;;;2.40;99.90;;;;;;4965003;28;20763;-55
2024/01/13 03:31:28;;;;;;;6.27;4.40;;;2.60;99.90;;;;;;4954041;28;20773;-56
2024/01/13 03:33:53;;;;;;;6.77;4.97;;;2.60;99.90;;;;;;4953149;28;20216;-57
2024/01/13 03:36:19;;;;;;;8.00;5.13;;;2.60;99.90;;;;;;4960773;28;20220;-54
2024/01/13 03:38:44;;;;;;;9.70;5.93;;;2.30;99.90;;;;;;4953103;28;20551;-55
2024/01/13 03:41:11;;;;;;;5.53;5.00;;;2.10;99.90;;;;;;4953841;28;20785;-54
2024/01/13 03:43:37;;;;;;;7.63;5.30;;;2.20;99.90;;;;;;4955171;28;20291;-58
2024/01/13 03:46:03;;;;;;;9.30;6.63;;;2.10;99.90;;;;;;4954190;28;20208;-58
2024/01/13 03:48:29;;;;;;;9.47;5.97;;;2.30;99.90;;;;;;4952593;28;20200;-56
2024/01/13 03:50:54;;;;;;;9.97;5.90;;;2.20;99.90;;;;;;4949294;28;20201;-55
2024/01/13 03:53:20;;;;;;;9.47;6.07;;;2.00;99.90;;;;;;4954660;28;20291;-56
2024/01/13 03:55:45;;;;;;;9.77;6.67;;;2.10;99.90;;;;;;4956654;28;20249;-54
2024/01/13 03:58:11;;;;;;;8.60;6.73;;;2.00;99.90;;;;;;4955285;28;20205;-55
2024/01/13 04:00:36;;;;;;;10.70;6.60;;;2.00;99.90;;;;;;4957369;28;20365;-55
2024/01/13 04:03:03;;;;;;;9.27;7.00;;;1.90;99.90;;;;;;4955954;28;20266;-53
2024/01/13 04:05:28;;;;;;;10.53;7.20;;;1.90;99.90;;;;;;4955196;28;20227;-55
2024/01/13 04:07:54;;;;;;;13.07;8.07;;;1.90;99.90;;;;;;4946896;28;20736;-56
2024/01/13 04:10:19;;;;;;;7.30;6.53;;;2.00;99.90;;;;;;4955130;28;20219;-55
2024/01/13 04:12:45;;;;;;;9.57;6.93;;;1.90;99.90;;;;;;4959410;28;20224;-54
2024/01/13 04:15:11;;;;;;;9.67;7.43;;;1.90;99.90;;;;;;4961520;28;20227;-55
2024/01/13 04:17:37;;;;;;;11.03;6.67;;;1.90;99.90;;;;;;4955233;28;20775;-54
2024/01/13 04:20:03;;;;;;;9.57;6.50;;;1.90;99.90;;;;;;4952229;28;20202;-55
2024/01/13 04:22:28;;;;;;;10.63;8.10;;;1.80;99.90;;;;;;4955117;28;20197;-56
2024/01/13 04:24:54;;;;;;;11.57;8.07;;;1.80;99.90;;;;;;4959509;28;20226;-55
2024/01/13 04:27:20;;;;;;;10.13;6.43;;;1.80;99.90;;;;;;4960441;28;20210;-57
2024/01/13 04:29:45;;;;;;;8.43;6.70;;;1.80;99.90;;;;;;4944007;28;20207;-67
2024/01/13 04:32:11;;;;;;;9.83;7.53;;;1.90;99.90;;;;;;4952134;28;20196;-57
2024/01/13 04:34:36;;;;;;;9.83;5.93;;;1.90;99.90;;;;;;4973261;28;20275;-56
2024/01/13 04:37:03;;;;;;;10.27;6.57;;;1.80;99.90;;;;;;4954059;28;20280;-55
2024/01/13 04:39:28;;;;;;;8.03;6.53;;;1.80;99.90;;;;;;4951318;28;20228;-56
2024/01/13 04:41:54;;;;;;;11.23;6.77;;;1.80;99.90;;;;;;4953832;28;21040;-56
2024/01/13 04:44:19;;;;;;;9.20;7.03;;;1.80;99.90;;;;;;4954884;28;20230;-55
2024/01/13 04:46:45;;;;;;;15.93;7.80;;;1.80;99.90;;;;;;4955638;28;20206;-55
2024/01/13 04:49:10;;;;;;;10.03;7.50;;;1.90;99.90;;;;;;4951768;28;20614;-56
2024/01/13 04:51:36;;;;;;;11.30;7.07;;;1.80;99.90;;;;;;4950106;28;20216;-55
2024/01/13 04:54:02;;;;;;;12.73;7.10;;;1.80;99.90;;;;;;4950882;28;20216;-56
2024/01/13 04:56:28;;;;;;;12.27;7.63;;;1.90;99.90;;;;;;4959024;28;20284;-55
2024/01/13 04:58:53;;;;;;;11.90;7.20;;;1.90;99.90;;;;;;4955585;28;20253;-56
2024/01/13 05:01:19;;;;;;;10.80;7.37;;;1.90;99.90;;;;;;4955876;28;20416;-55
2024/01/13 05:03:44;;;;;;;8.70;6.17;;;1.90;99.90;;;;;;4959036;28;20260;-55
2024/01/13 05:06:10;;;;;;;10.43;6.33;;;1.90;99.90;;;;;;4950443;28;20228;-55
2024/01/13 05:08:35;;;;;;;9.37;6.83;;;1.90;99.90;;;;;;4950375;28;20675;-57
2024/01/13 05:11:01;;;;;;;7.50;5.90;;;1.90;99.90;;;;;;4958744;28;20227;-55
2024/01/13 05:13:26;;;;;;;9.33;6.57;;;1.90;99.90;;;;;;4959119;28;20253;-55
2024/01/13 05:15:52;;;;;;;8.80;6.03;;;1.90;99.90;;;;;;4947538;28;20206;-55
2024/01/13 05:18:17;;;;;;;9.97;6.67;;;1.90;99.90;;;;;;4941339;28;20253;-56
2024/01/13 05:20:43;;;;;;;6.60;5.73;;;1.90;99.90;;;;;;4952583;28;20708;-55
2024/01/13 05:23:08;;;;;;;8.77;6.57;;;1.90;99.90;;;;;;4953906;28;20217;-55
2024/01/13 05:25:34;;;;;;;9.87;5.20;;;1.90;99.90;;;;;;4956877;28;20217;-56
2024/01/13 05:28:02;;;;;;;10.00;5.87;;;1.90;99.90;;;;;;4957062;28;20224;-56
2024/01/13 05:30:31;;;;;;;9.43;6.53;;;2.00;99.90;;;;;;4955440;28;20204;-55
2024/01/13 05:32:57;;;;;;;7.40;5.83;;;2.00;99.90;;;;;;4958569;28;20285;-55
2024/01/13 05:35:23;;;;;;;7.20;5.77;;;2.00;99.90;;;;;;4955587;28;20634;-55
2024/01/13 05:37:48;;;;;;;8.23;6.17;;;1.90;99.90;;;;;;4952477;28;20702;-55
2024/01/13 05:40:14;;;;;;;9.67;7.03;;;1.80;99.90;;;;;;4951276;28;20201;-55
2024/01/13 05:42:39;;;;;;;8.40;6.67;;;1.90;99.90;;;;;;4953914;28;20716;-55
2024/01/13 05:45:06;;;;;;;6.83;6.13;;;2.00;99.90;;;;;;4962257;28;20631;-56
2024/01/13 05:47:31;;;;;;;9.53;6.60;;;2.00;99.90;;;;;;4952650;28;20750;-55
2024/01/13 05:49:57;;;;;;;9.07;7.57;;;1.80;99.90;;;;;;4947923;28;20679;-55
2024/01/13 05:52:22;;;;;;;10.33;6.23;;;1.90;99.90;;;;;;4953819;28;20215;-56
2024/01/13 05:54:48;;;;;;;9.97;7.27;;;2.20;99.90;;;;;;4952045;28;21159;-57
2024/01/13 05:57:14;;;;;;;6.93;6.13;;;2.20;99.90;;;;;;4959101;28;20207;-55
2024/01/13 05:59:39;;;;;;;9.50;7.50;;;1.90;99.90;;;;;;4964624;28;20395;-55
2024/01/13 06:02:05;;;;;;;7.67;5.83;;;1.80;99.90;;;;;;4962468;28;20490;-55
2024/01/13 06:04:31;;;;;;;7.87;6.90;;;1.80;99.90;;;;;;4963242;28;20287;-73
2024/01/13 06:06:56;;;;;;;8.63;7.23;;;1.90;99.90;;;;;;4957337;28;20667;-56
2024/01/13 06:09:22;;;;;;;8.73;7.23;;;2.20;99.90;;;;;;4951323;28;20213;-54
2024/01/13 06:11:47;;;;;;;9.20;5.97;;;2.10;99.90;;;;;;4954677;28;20208;-53
2024/01/13 06:14:13;;;;;;;10.13;6.97;;;2.10;99.90;;;;;;4957357;28;20250;-55
2024/01/13 06:16:38;;;;;;;8.93;7.33;;;2.00;99.90;;;;;;4961051;28;20320;-67
2024/01/13 06:19:05;;;;;;;10.53;8.43;;;1.90;99.90;;;;;;4953192;28;20701;-54
2024/01/13 06:21:31;;;;;;;9.10;7.20;;;1.80;99.90;;;;;;4954657;28;20539;-55
2024/01/13 06:23:58;;;;;;;12.00;8.00;;;1.90;99.90;;;;;;4954041;28;20207;-55
2024/01/13 06:26:27;;;;;;;13.47;7.93;;;1.80;99.90;;;;;;4953601;28;20216;-54
2024/01/13 06:28:52;;;;;;;10.83;8.33;;;1.80;99.90;;;;;;4957272;28;20219;-53
2024/01/13 06:31:18;;;;;;;10.60;8.13;;;1.80;99.90;;;;;;4954420;28;20212;-54
2024/01/13 06:33:43;;;;;;;9.77;7.27;;;1.80;99.90;;;;;;4953939;28;20335;-57
2024/01/13 06:36:09;;;;;;;11.80;9.03;;;2.00;99.90;;;;;;4957312;28;20278;-55
2024/01/13 06:38:34;;;;;;;12.30;8.20;;;2.00;99.90;;;;;;4956164;28;20204;-55
2024/01/13 06:41:00;;;;;;;11.53;8.67;;;2.00;99.90;;;;;;4959272;28;20209;-55
2024/01/13 06:43:25;;;;;;;9.27;6.77;;;1.90;99.90;;;;;;4959318;28;21182;-55
2024/01/13 06:45:51;;;;;;;8.63;7.20;;;1.80;99.90;;;;;;4962232;28;20217;-54
2024/01/13 06:48:16;;;;;;;8.57;6.70;;;1.80;99.90;;;;;;4960453;28;20217;-55
2024/01/13 06:50:42;;;;;;;8.77;7.70;;;1.80;99.90;;;;;;4954056;28;20199;-55
2024/01/13 06:53:07;;;;;;;8.50;6.50;;;2.00;99.90;;;;;;4958584;28;20247;-54
2024/01/13 06:55:32;;;;;;;11.43;7.60;;;2.00;99.90;;;;;;4957070;28;20208;-55
2024/01/13 06:57:58;;;;;;;8.60;7.43;;;1.90;99.90;;;;;;4971953;28;20235;-55
2024/01/13 07:00:23;;;;;;;10.40;7.23;;;1.90;99.90;;;;;;4957782;28;20206;-55
2024/01/13 07:02:49;;;;;;;8.80;5.77;;;2.10;99.90;;;;;;4959612;28;20586;-55
2024/01/13 07:05:15;;;;;;;7.63;6.83;;;1.90;99.90;;;;;;4958482;28;20309;-54
2024/01/13 07:07:41;;;;;;;10.63;6.53;;;2.00;99.90;;;;;;4948279;28;20266;-56
2024/01/13 07:10:06;;;;;;;7.50;6.43;;;2.00;99.90;;;;;;4952397;28;20206;-54
2024/01/13 07:12:32;;;;;;;8.87;6.20;;;2.00;99.90;;;;;;4963897;28;20212;-55
2024/01/13 07:14:57;;;;;;;6.83;5.53;;;1.90;99.90;;;;;;4961504;28;20232;-55
2024/01/13 07:17:23;;;;;;;5.80;4.90;;;1.90;99.90;;;;;;4961388;28;20249;-54
2024/01/13 07:19:48;;;;;;;7.47;5.67;;;2.00;99.90;;;;;;4956031;28;20202;-55
2024/01/13 07:22:14;;;;;;;6.73;5.03;;;2.30;99.90;;;;;;4959139;28;20683;-55
2024/01/13 07:24:39;;;;;;;5.17;4.67;;;2.10;99.90;;;;;;4957667;28;20228;-55
2024/01/13 07:27:05;;;;;;;7.07;5.43;;;2.00;99.90;;;;;;4938981;28;20302;-57
2024/01/13 07:29:31;;;;;;;7.07;5.03;;;2.00;99.90;;;;;;4953638;28;20198;-56
2024/01/13 07:31:56;;;;;;;5.27;4.57;;;2.00;99.90;;;;;;4955144;28;20196;-55
2024/01/13 07:34:22;;;;;;;5.30;4.77;;;2.00;99.90;;;;;;4955528;28;20311;-55
2024/01/13 07:36:47;;;;;;;5.90;4.97;;;2.10;99.90;;;;;;4954348;28;20618;-55
2024/01/13 07:39:13;;;;;;;6.20;4.20;;;2.10;99.90;;;;;;4953786;28;20222;-56
2024/01/13 07:41:39;;;;;;;6.50;5.00;;;2.10;99.90;;;;;;4954002;28;20736;-56
2024/01/13 07:44:05;;;;;;;7.47;4.73;;;2.10;99.90;;;;;;4955645;28;20270;-54
2024/01/13 07:46:31;;;;;;;5.87;4.77;;;2.00;99.90;;;;;;4954066;28;20226;-56
2024/01/13 07:48:56;;;;;;;4.77;3.97;;;1.90;99.90;;;;;;4936773;28;20667;-56
2024/01/13 07:51:21;;;;;;;5.93;3.87;;;1.90;99.90;;;;;;4953613;28;20254;-54
2024/01/13 07:53:47;;;;;;;4.60;3.97;;;1.90;99.90;;;;;;4953906;28;20220;-55
2024/01/13 07:56:13;;;;;;;4.73;4.00;;;1.90;99.90;;;;;;4959669;28;20209;-56
2024/01/13 07:58:38;;;;;;;4.07;3.53;;;1.90;99.90;;;;;;4957001;28;20293;-55
2024/01/13 08:01:04;;;;;;;5.00;3.90;;;1.90;99.90;;;;;;4943090;28;20207;-55
2024/01/13 08:03:30;;;;;;;5.50;4.27;;;2.20;99.90;;;;;;4960582;28;20695;-55
2024/01/13 08:05:55;;;;;;;5.53;3.90;;;2.00;99.90;;;;;;4958861;28;20228;-55
2024/01/13 08:08:21;;;;;;;4.43;3.60;;;2.20;99.90;;;;;;4959598;28;20220;-56
2024/01/13 08:10:46;;;;;;;3.30;3.00;;;2.00;99.90;;;;;;4956396;28;20205;-56
2024/01/13 08:13:14;;;;;;;3.87;3.50;;;1.90;99.90;;;;;;4955051;28;20208;-54
2024/01/13 08:15:39;;;;;;;4.13;2.97;;;1.80;99.90;;;;;;4962174;28;20199;-55
2024/01/13 08:18:05;;;;;;;5.80;2.97;;;1.80;99.90;;;;;;4957176;28;20213;-55
2024/01/13 08:20:31;;;;;;;4.10;3.07;;;1.90;99.90;;;;;;4956572;28;20207;-55
2024/01/13 08:22:57;;;;;;;3.67;3.13;;;2.10;99.90;;;;;;4952860;28;20204;-55
2024/01/13 08:25:22;;;;;;;4.83;3.27;;;2.00;99.90;;;;;;4957536;28;20306;-55
2024/01/13 08:27:48;;;;;;;2.77;2.53;;;2.10;99.90;;;;;;4955924;28;20207;-69
2024/01/13 08:30:14;;;;;;;5.70;4.27;;;2.10;99.90;;;;;;4962114;28;20276;-56
2024/01/13 08:32:40;;;;;;;3.30;3.00;;;2.10;99.90;;;;;;4961667;28;20237;-56
2024/01/13 08:35:07;;;;;;;4.20;3.80;;;2.30;99.90;;;;;;4950360;28;20262;-55
2024/01/13 08:37:32;;;;;;;3.50;3.20;;;2.10;99.90;;;;;;4951075;28;20666;-55
2024/01/13 08:39:58;;;;;;;6.93;2.60;;;2.00;99.90;;;;;;4952360;28;20216;-57
2024/01/13 08:42:23;;;;;;;3.43;2.53;;;2.00;99.90;;;;;;4947558;28;20729;-55
2024/01/13 08:44:49;;;;;;;3.30;3.00;;;2.00;99.90;;;;;;4956621;28;20217;-59
2024/01/13 08:47:15;;;;;;;3.50;3.20;;;2.00;99.90;;;;;;4955881;28;20310;-55
2024/01/13 08:49:40;;;;;;;3.97;2.90;;;2.00;99.90;;;;;;4949212;28;20224;-59
2024/01/13 08:52:09;;;;;;;3.97;3.43;;;2.10;99.90;;;;;;4952904;28;20208;-55
2024/01/13 08:54:36;;;;;;;3.20;2.80;;;2.30;99.90;;;;;;4955461;28;20425;-55
2024/01/13 08:57:03;;;;;;;4.87;2.80;;;2.40;99.90;;;;;;4952443;28;20215;-55
2024/01/13 08:59:28;;;;;;;2.80;2.57;;;2.30;99.90;;;;;;4956273;28;20575;-55
2024/01/13 09:01:54;;;;;;;3.10;2.60;;;2.60;99.90;;;;;;4952552;28;20195;-56
2024/01/13 09:04:20;;;;;;;2.73;2.37;;;2.60;99.90;;;;;;4951787;28;20724;-69
2024/01/13 09:06:45;;;;;;;4.47;2.63;;;2.30;99.90;;;;;;4952457;28;20671;-64
2024/01/13 09:09:11;;;;;;;3.93;2.10;;;2.30;99.90;;;;;;4952737;28;20209;-63
2024/01/13 09:11:37;;;;;;;3.43;2.63;;;2.20;99.90;;;;;;4943907;28;20206;-55
2024/01/13 09:14:03;;;;;;;2.80;2.60;;;2.30;99.90;;;;;;4954202;28;20202;-54
2024/01/13 09:16:28;;;;;;;3.30;3.03;;;2.30;99.90;;;;;;4951749;28;20205;-56
2024/01/13 09:18:54;;;;;;;2.90;2.60;;;2.40;99.90;;;;;;4953161;28;20197;-54
2024/01/13 09:21:19;;;;;;;3.60;3.30;;;2.40;99.90;;;;;;4953541;28;20207;-54
2024/01/13 09:23:46;;;;;;;3.33;3.03;;;2.50;99.90;;;;;;4952405;28;20228;-55
2024/01/13 09:26:12;;;;;;;3.47;3.00;;;2.30;99.90;;;;;;4950814;28;20649;-58
2024/01/13 09:28:37;;;;;;;6.27;3.77;;;2.40;99.90;;;;;;4946090;28;20237;-65
2024/01/13 09:31:03;;;;;;;4.57;3.80;;;2.40;99.90;;;;;;4953872;28;20214;-56
2024/01/13 09:33:28;;;;;;;7.33;5.70;;;2.60;99.90;;;;;;4958742;28;20205;-55
2024/01/13 09:35:54;;;;;;;3.13;2.80;;;2.40;99.90;;;;;;4961633;28;20468;-55
2024/01/13 09:38:23;;;;;;;4.27;3.77;;;2.30;99.90;;;;;;4960069;28;20258;-63
2024/01/13 09:40:48;;;;;;;3.57;3.23;;;2.40;99.90;;;;;;4965397;28;20203;-55
2024/01/13 09:43:31;;;;;;;3.57;2.67;;;2.70;99.90;;;;;;4975901;28;20210;-58
2024/01/13 09:45:57;;;;;;;3.17;2.87;;;2.60;99.90;;;;;;4953539;28;20225;-57
2024/01/13 09:48:23;;;;;;;3.50;3.20;;;3.00;99.90;;;;;;4937463;28;20212;-56
2024/01/13 09:50:52;;;;;;;3.23;2.87;;;3.20;99.90;;;;;;4949835;28;20226;-56
2024/01/13 09:53:28;;;;;;;4.97;3.50;;;3.20;99.90;;;;;;4955356;28;20785;-55
2024/01/13 09:55:59;;;;;;;3.50;3.20;;;3.30;99.90;;;;;;4957647;28;20206;-54
2024/01/13 09:58:25;;;;;;;3.33;3.03;;;3.30;99.90;;;;;;4956497;28;20312;-57
2024/01/13 10:00:53;;;;;;;3.30;2.87;;;3.40;99.90;;;;;;4960087;28;20576;-54
2024/01/13 10:03:20;;;;;;;2.90;2.63;;;3.30;99.90;;;;;;4953588;28;20291;-56
2024/01/13 10:05:46;;;;;;;6.23;5.10;;;3.20;99.90;;;;;;4944275;28;20621;-59
2024/01/13 10:08:12;;;;;;;2.47;2.27;;;3.10;99.90;;;;;;4949360;28;20201;-54
2024/01/13 10:10:38;;;;;;;2.47;2.27;;;3.20;99.90;;;;;;4952460;28;20263;-55
2024/01/13 10:13:06;;;;;;;3.10;2.80;;;3.40;99.90;;;;;;4956762;28;20265;-64
2024/01/13 10:15:33;;;;;;;3.00;2.73;;;3.50;99.90;;;;;;4954855;28;20208;-64
2024/01/13 10:18:00;;;;;;;3.00;2.70;;;3.20;99.90;;;;;;4944792;28;20209;-56
2024/01/13 10:20:26;;;;;;;2.77;2.57;;;3.00;99.90;;;;;;4963244;28;20217;-56
2024/01/13 10:22:51;;;;;;;3.50;2.97;;;2.90;99.90;;;;;;4958102;28;21109;-56
2024/01/13 10:25:17;;;;;;;4.30;2.87;;;3.10;99.90;;;;;;4953613;28;20974;-57
2024/01/13 10:27:45;;;;;;;2.70;2.47;;;3.20;99.90;;;;;;4958254;28;20620;-54
2024/01/13 10:30:13;;;;;;;2.93;2.73;;;3.20;99.90;;;;;;4948886;28;20205;-62
2024/01/13 10:32:41;;;;;;;3.00;2.73;;;3.20;99.90;;;;;;4953303;28;20201;-56
2024/01/13 10:35:07;;;;;;;2.93;2.73;;;3.20;99.90;;;;;;4961402;28;20202;-59
2024/01/13 10:37:35;;;;;;;3.37;2.60;;;3.10;99.90;;;;;;4960792;28;20605;-55
2024/01/13 10:40:01;;;;;;;3.20;2.93;;;2.80;99.90;;;;;;4957379;28;20201;-55
2024/01/13 10:42:33;;;;;;;2.97;2.63;;;2.80;99.90;;;;;;4967164;28;20201;-56
2024/01/13 10:48:45;;;;;;;3.27;2.97;;;3.10;99.90;;;;;;4960699;28;20295;-54
2024/01/13 10:51:35;;;;;;;2.87;2.67;;;2.70;99.90;;;;;;4948569;28;20204;-55
2024/01/13 10:54:02;;;;;;;2.37;2.20;;;2.50;99.90;;;;;;4958885;28;20573;-56
2024/01/13 10:56:29;;;;;;;2.07;1.97;;;2.60;99.90;;;;;;4947348;28;20308;-65
2024/01/13 10:58:57;;;;;;;3.00;2.30;;;2.50;99.90;;;;;;4951926;28;20187;-54
2024/01/13 11:01:24;;;;;;;2.60;2.40;;;2.50;99.90;;;;;;4952227;28;20725;-54
2024/01/13 11:03:54;;;;;;;2.47;2.27;;;2.60;99.90;;;;;;4945299;28;20256;-53
2024/01/13 11:06:24;;;;;;;2.00;1.87;;;2.40;99.90;;;;;;4944960;28;20223;-55
2024/01/13 11:08:51;;;;;;;2.73;2.53;;;2.50;99.90;;;;;;4948337;28;20592;-53
2024/01/13 11:11:35;;;;;;;2.27;2.17;;;2.60;99.90;;;;;;4953546;28;20247;-53
2024/01/13 11:14:09;;;;;;;2.60;2.40;;;2.80;99.90;;;;;;4957042;28;20222;-54
2024/01/13 11:16:37;;;;;;;2.50;2.30;;;2.80;99.90;;;;;;4951399;28;20293;-66
2024/01/13 11:19:02;;;;;;;2.30;2.10;;;2.80;99.90;;;;;;4953428;28;20205;-66
2024/01/13 11:21:32;;;;;;;2.73;2.50;;;2.60;99.90;;;;;;4954424;28;20196;-64
2024/01/13 11:23:58;;;;;;;2.67;2.47;;;2.50;99.90;;;;;;4954235;28;20189;-56
2024/01/13 11:26:37;;;;;;;2.73;2.50;;;2.70;99.90;;;;;;4957901;28;20212;-54
2024/01/13 11:29:15;;;;;;;2.80;2.03;;;2.80;99.90;;;;;;4955305;28;20207;-55
2024/01/13 11:31:41;;;;;;;3.10;2.80;;;2.80;99.90;;;;;;4956134;28;20559;-55
2024/01/13 11:34:12;;;;;;;1.80;1.70;;;2.70;99.90;;;;;;4951978;28;20314;-55
2024/01/13 11:36:45;;;;;;;2.10;1.90;;;2.70;99.90;;;;;;4953405;28;20208;-55
2024/01/13 11:39:11;;;;;;;1.90;1.80;;;2.80;99.90;;;;;;4956650;28;20199;-54
2024/01/13 11:41:46;;;;;;;1.67;1.57;;;2.70;99.90;;;;;;4953114;28;20219;-54
2024/01/13 11:44:25;;;;;;;2.40;2.10;;;2.80;99.90;;;;;;4958268;28;20231;-63
2024/01/13 11:47:11;;;;;;;2.57;2.37;;;2.90;99.90;;;;;;4951344;28;20204;-54
2024/01/13 11:49:39;;;;;;;1.90;1.80;;;2.80;99.90;;;;;;4952564;28;20201;-55
2024/01/13 11:52:14;;;;;;;2.27;2.07;;;2.60;99.90;;;;;;4960780;28;20227;-55
2024/01/13 11:54:41;;;;;;;2.47;2.27;;;2.60;99.90;;;;;;4958480;28;20219;-55
2024/01/13 11:57:12;;;;;;;2.37;2.17;;;2.60;99.90;;;;;;4955175;28;20207;-55
2024/01/13 11:59:39;;;;;;;2.50;2.40;;;2.70;99.90;;;;;;4968483;28;20563;-55
2024/01/13 12:02:05;;;;;;;2.37;2.27;;;2.80;99.90;;;;;;4957193;28;20951;-55
2024/01/13 12:04:32;;;;;;;2.50;2.17;;;2.70;99.90;;;;;;4956692;28;20965;-54
2024/01/13 12:06:59;;;;;;;2.03;1.93;;;2.50;99.90;;;;;;4995795;23;20561;-55
2024/01/13 12:09:28;;;;;;;2.37;2.20;;;2.70;99.90;;;;;;4972005;28;20282;-54
2024/01/13 12:12:05;;;;;;;2.33;2.00;;;2.80;99.90;;;;;;4965202;28;20290;-54
2024/01/13 12:14:32;;;;;;;2.33;2.10;;;2.80;99.90;;;;;;4973822;28;20204;-55
2024/01/13 12:16:59;;;;;;;2.33;1.97;;;2.80;99.90;;;;;;4977162;28;20218;-55
2024/01/13 12:19:32;;;;;;;1.93;1.83;;;3.00;99.90;;;;;;4972025;28;20580;-54
2024/01/13 12:21:58;;;;;;;2.43;2.00;;;2.80;99.90;;;;;;4955039;28;20203;-55
2024/01/13 12:24:28;;;;;;;2.60;2.40;;;2.80;99.90;;;;;;4966976;28;20709;-55
2024/01/13 12:26:54;;;;;;;2.40;2.20;;;2.90;99.90;;;;;;4977706;28;20228;-54
2024/01/13 12:29:21;;;;;;;1.60;1.50;;;2.90;99.90;;;;;;4975693;28;20195;-54
2024/01/13 12:31:48;;;;;;;1.83;1.73;;;2.80;99.90;;;;;;4978344;28;20264;-55
2024/01/13 12:34:15;;;;;;;3.40;1.73;;;2.90;99.90;;;;;;4976523;28;20215;-55
2024/01/13 12:36:41;;;;;;;2.33;2.13;;;2.90;99.90;;;;;;4969154;28;20285;-55
2024/01/13 12:39:07;;;;;;;3.47;1.87;;;2.70;99.90;;;;;;4975046;28;20203;-54
2024/01/13 12:41:34;;;;;;;2.10;2.00;;;2.60;99.90;;;;;;4977537;28;20220;-54
2024/01/13 12:44:00;;;;;;;2.90;2.63;;;2.70;99.90;;;;;;4985330;28;20228;-55
2024/01/13 12:46:28;;;;;;;2.47;2.33;;;2.60;99.90;;;;;;4974253;28;20243;-55
2024/01/13 12:48:54;;;;;;;2.27;2.07;;;2.50;99.90;;;;;;4971647;28;20200;-54
2024/01/13 12:51:20;;;;;;;2.47;2.10;;;2.60;99.90;;;;;;4947348;28;20299;-54
2024/01/13 12:53:46;;;;;;;2.10;1.90;;;2.60;99.90;;;;;;4965175;28;20287;-57
2024/01/13 12:56:13;;;;;;;2.30;2.20;;;2.60;99.90;;;;;;4955662;28;20202;-55